sensor_id;sensor_type;location;lat;lon;timestamp;noise_LAeq;noise_LA_min;noise_LA_max;noise_LA01;noise_LA95
68599;Laerm;18038;50.166;18.908;2022-11-30T00:00:20;34.04;32.69;45.03;;
68599;Laerm;18038;50.166;18.908;2022-11-30T00:03:28;33.93;32.86;38.42;;
68599;Laerm;18038;50.166;18.908;2022-11-30T00:06:40;34.11;32.77;47.50;;
68599;Laerm;18038;50.166;18.908;2022-11-30T00:09:48;34.30;32.77;47.02;;
68599;Laerm;18038;50.166;18.908;2022-11-30T00:12:55;34.26;32.63;50.85;;
68599;Laerm;18038;50.166;18.908;2022-11-30T00:16:02;34.07;32.79;47.06;;
68599;Laerm;18038;50.166;18.908;2022-11-30T00:19:08;34.60;32.88;44.32;;
68599;Laerm;18038;50.166;18.908;2022-11-30T00:22:18;35.13;32.86;51.48;;
68599;Laerm;18038;50.166;18.908;2022-11-30T00:25:24;34.18;32.61;48.69;;
68599;Laerm;18038;50.166;18.908;2022-11-30T00:28:33;34.57;32.79;55.66;;
68599;Laerm;18038;50.166;18.908;2022-11-30T00:31:40;33.91;32.62;42.31;;
68599;Laerm;18038;50.166;18.908;2022-11-30T00:34:47;33.94;32.85;38.10;;
68599;Laerm;18038;50.166;18.908;2022-11-30T00:37:56;34.47;32.69;48.84;;
68599;Laerm;18038;50.166;18.908;2022-11-30T00:41:03;34.30;32.74;50.23;;
68599;Laerm;18038;50.166;18.908;2022-11-30T00:44:10;34.24;32.49;50.35;;
68599;Laerm;18038;50.166;18.908;2022-11-30T00:47:17;35.54;32.76;58.16;;
68599;Laerm;18038;50.166;18.908;2022-11-30T00:50:24;34.75;32.73;50.18;;
68599;Laerm;18038;50.166;18.908;2022-11-30T00:53:34;33.91;32.57;44.73;;
68599;Laerm;18038;50.166;18.908;2022-11-30T00:56:40;34.32;32.49;46.62;;
68599;Laerm;18038;50.166;18.908;2022-11-30T00:59:48;34.15;32.87;48.52;;
68599;Laerm;18038;50.166;18.908;2022-11-30T01:02:55;35.60;32.70;57.46;;
68599;Laerm;18038;50.166;18.908;2022-11-30T01:06:02;33.88;32.82;35.42;;
68599;Laerm;18038;50.166;18.908;2022-11-30T01:09:11;34.14;32.75;45.51;;
68599;Laerm;18038;50.166;18.908;2022-11-30T01:12:18;33.95;32.82;35.09;;
68599;Laerm;18038;50.166;18.908;2022-11-30T01:15:24;34.52;32.62;50.79;;
68599;Laerm;18038;50.166;18.908;2022-11-30T01:18:31;33.94;32.68;37.07;;
68599;Laerm;18038;50.166;18.908;2022-11-30T01:21:37;34.19;32.77;40.20;;
68599;Laerm;18038;50.166;18.908;2022-11-30T01:24:47;33.98;32.64;44.40;;
68599;Laerm;18038;50.166;18.908;2022-11-30T01:27:53;33.96;32.77;37.68;;
68599;Laerm;18038;50.166;18.908;2022-11-30T01:31:02;34.78;32.78;45.20;;
68599;Laerm;18038;50.166;18.908;2022-11-30T01:34:09;33.94;32.77;34.98;;
68599;Laerm;18038;50.166;18.908;2022-11-30T01:37:16;35.41;32.90;48.32;;
68599;Laerm;18038;50.166;18.908;2022-11-30T01:40:25;34.01;32.70;42.01;;
68599;Laerm;18038;50.166;18.908;2022-11-30T01:43:41;33.98;32.73;36.59;;
68599;Laerm;18038;50.166;18.908;2022-11-30T01:46:56;34.70;32.79;46.49;;
68599;Laerm;18038;50.166;18.908;2022-11-30T01:50:11;34.12;32.78;46.09;;
68599;Laerm;18038;50.166;18.908;2022-11-30T01:53:18;34.58;32.64;47.52;;
68599;Laerm;18038;50.166;18.908;2022-11-30T01:56:28;34.46;32.73;50.12;;
68599;Laerm;18038;50.166;18.908;2022-11-30T01:59:35;34.10;32.47;45.66;;
68599;Laerm;18038;50.166;18.908;2022-11-30T02:02:54;33.94;32.76;37.96;;
68599;Laerm;18038;50.166;18.908;2022-11-30T02:06:01;34.03;32.74;46.37;;
68599;Laerm;18038;50.166;18.908;2022-11-30T02:09:09;33.96;32.79;42.16;;
68599;Laerm;18038;50.166;18.908;2022-11-30T02:12:31;33.99;32.88;37.24;;
68599;Laerm;18038;50.166;18.908;2022-11-30T02:15:56;34.29;32.65;50.86;;
68599;Laerm;18038;50.166;18.908;2022-11-30T02:19:48;34.67;32.60;52.15;;
68599;Laerm;18038;50.166;18.908;2022-11-30T02:27:21;34.26;32.58;48.69;;
68599;Laerm;18038;50.166;18.908;2022-11-30T02:30:42;34.54;32.52;46.33;;
68599;Laerm;18038;50.166;18.908;2022-11-30T02:33:55;36.64;32.69;53.86;;
68599;Laerm;18038;50.166;18.908;2022-11-30T02:37:08;34.08;32.67;47.93;;
68599;Laerm;18038;50.166;18.908;2022-11-30T02:40:18;34.13;32.69;43.12;;
68599;Laerm;18038;50.166;18.908;2022-11-30T02:43:29;33.95;32.75;46.41;;
68599;Laerm;18038;50.166;18.908;2022-11-30T02:46:57;33.99;32.64;44.58;;
68599;Laerm;18038;50.166;18.908;2022-11-30T02:50:14;34.48;32.69;46.00;;
68599;Laerm;18038;50.166;18.908;2022-11-30T02:53:20;34.13;32.70;45.17;;
68599;Laerm;18038;50.166;18.908;2022-11-30T02:56:28;34.56;32.54;49.16;;
68599;Laerm;18038;50.166;18.908;2022-11-30T02:59:35;34.06;32.67;47.11;;
68599;Laerm;18038;50.166;18.908;2022-11-30T03:02:45;35.03;32.79;49.25;;
68599;Laerm;18038;50.166;18.908;2022-11-30T03:05:52;34.13;32.86;51.71;;
68599;Laerm;18038;50.166;18.908;2022-11-30T03:08:59;35.57;32.75;48.05;;
68599;Laerm;18038;50.166;18.908;2022-11-30T03:12:06;34.40;32.61;45.40;;
68599;Laerm;18038;50.166;18.908;2022-11-30T03:15:13;33.90;32.75;34.99;;
68599;Laerm;18038;50.166;18.908;2022-11-30T03:18:21;34.97;32.90;46.92;;
68599;Laerm;18038;50.166;18.908;2022-11-30T03:21:28;35.33;32.81;47.39;;
68599;Laerm;18038;50.166;18.908;2022-11-30T03:24:34;35.32;32.78;48.75;;
68599;Laerm;18038;50.166;18.908;2022-11-30T03:27:41;35.21;32.64;50.19;;
68599;Laerm;18038;50.166;18.908;2022-11-30T03:30:47;35.30;32.78;48.33;;
68599;Laerm;18038;50.166;18.908;2022-11-30T03:33:57;34.72;32.64;45.12;;
68599;Laerm;18038;50.166;18.908;2022-11-30T03:37:03;35.80;32.91;44.25;;
68599;Laerm;18038;50.166;18.908;2022-11-30T03:40:11;34.75;32.63;42.89;;
68599;Laerm;18038;50.166;18.908;2022-11-30T03:43:17;34.44;32.62;45.54;;
68599;Laerm;18038;50.166;18.908;2022-11-30T03:46:24;35.57;32.41;46.24;;
68599;Laerm;18038;50.166;18.908;2022-11-30T03:49:33;36.03;32.93;46.47;;
68599;Laerm;18038;50.166;18.908;2022-11-30T03:52:40;35.15;32.83;48.05;;
68599;Laerm;18038;50.166;18.908;2022-11-30T03:55:52;36.15;32.98;45.85;;
68599;Laerm;18038;50.166;18.908;2022-11-30T03:58:59;36.17;32.75;46.72;;
68599;Laerm;18038;50.166;18.908;2022-11-30T04:02:05;35.92;32.83;44.00;;
68599;Laerm;18038;50.166;18.908;2022-11-30T04:05:15;36.44;32.92;46.95;;
68599;Laerm;18038;50.166;18.908;2022-11-30T04:08:25;36.71;32.45;49.15;;
68599;Laerm;18038;50.166;18.908;2022-11-30T04:11:33;36.83;32.98;46.06;;
68599;Laerm;18038;50.166;18.908;2022-11-30T04:14:39;36.40;32.85;47.00;;
68599;Laerm;18038;50.166;18.908;2022-11-30T04:17:46;37.51;33.02;48.50;;
68599;Laerm;18038;50.166;18.908;2022-11-30T04:20:57;36.85;32.70;49.90;;
68599;Laerm;18038;50.166;18.908;2022-11-30T04:24:06;35.55;32.89;44.08;;
68599;Laerm;18038;50.166;18.908;2022-11-30T04:27:13;37.83;33.37;46.74;;
68599;Laerm;18038;50.166;18.908;2022-11-30T04:30:20;36.24;33.02;46.24;;
68599;Laerm;18038;50.166;18.908;2022-11-30T04:33:27;38.37;33.10;46.91;;
68599;Laerm;18038;50.166;18.908;2022-11-30T04:36:36;37.33;32.96;48.46;;
68599;Laerm;18038;50.166;18.908;2022-11-30T04:39:42;38.13;33.11;46.26;;
68599;Laerm;18038;50.166;18.908;2022-11-30T04:42:49;38.10;33.27;46.31;;
68599;Laerm;18038;50.166;18.908;2022-11-30T04:45:55;37.06;32.91;45.87;;
68599;Laerm;18038;50.166;18.908;2022-11-30T04:49:02;37.54;33.27;45.89;;
68599;Laerm;18038;50.166;18.908;2022-11-30T04:52:12;37.44;33.18;46.72;;
68599;Laerm;18038;50.166;18.908;2022-11-30T04:55:19;39.68;33.12;65.25;;
68599;Laerm;18038;50.166;18.908;2022-11-30T04:58:25;36.56;33.00;45.49;;
68599;Laerm;18038;50.166;18.908;2022-11-30T05:01:32;36.79;32.92;45.22;;
68599;Laerm;18038;50.166;18.908;2022-11-30T05:04:38;36.92;32.90;48.45;;
68599;Laerm;18038;50.166;18.908;2022-11-30T05:07:55;38.58;33.01;50.28;;
68599;Laerm;18038;50.166;18.908;2022-11-30T05:11:02;36.25;33.07;46.96;;
68599;Laerm;18038;50.166;18.908;2022-11-30T05:14:09;38.30;34.03;45.30;;
68599;Laerm;18038;50.166;18.908;2022-11-30T05:17:15;38.13;33.37;53.94;;
68599;Laerm;18038;50.166;18.908;2022-11-30T05:20:22;37.43;33.02;47.64;;
68599;Laerm;18038;50.166;18.908;2022-11-30T05:23:31;38.60;32.91;47.82;;
68599;Laerm;18038;50.166;18.908;2022-11-30T05:26:38;38.44;33.32;47.69;;
68599;Laerm;18038;50.166;18.908;2022-11-30T05:29:44;39.30;33.18;53.06;;
68599;Laerm;18038;50.166;18.908;2022-11-30T05:32:52;37.81;32.83;48.09;;
68599;Laerm;18038;50.166;18.908;2022-11-30T05:35:58;38.03;33.23;44.84;;
68599;Laerm;18038;50.166;18.908;2022-11-30T05:39:15;38.72;33.28;46.04;;
68599;Laerm;18038;50.166;18.908;2022-11-30T05:42:21;38.94;33.34;48.26;;
68599;Laerm;18038;50.166;18.908;2022-11-30T05:45:29;37.99;33.37;48.07;;
68599;Laerm;18038;50.166;18.908;2022-11-30T05:48:36;39.31;33.72;47.68;;
68599;Laerm;18038;50.166;18.908;2022-11-30T05:51:43;38.49;33.39;47.95;;
68599;Laerm;18038;50.166;18.908;2022-11-30T05:54:52;38.50;33.45;48.13;;
68599;Laerm;18038;50.166;18.908;2022-11-30T05:57:59;40.29;33.88;53.12;;
68599;Laerm;18038;50.166;18.908;2022-11-30T06:01:06;38.92;34.21;48.42;;
68599;Laerm;18038;50.166;18.908;2022-11-30T06:04:14;38.65;33.36;54.58;;
68599;Laerm;18038;50.166;18.908;2022-11-30T06:07:20;37.73;33.15;56.62;;
68599;Laerm;18038;50.166;18.908;2022-11-30T06:10:29;38.41;33.27;46.93;;
68599;Laerm;18038;50.166;18.908;2022-11-30T06:13:36;38.83;32.89;47.73;;
68599;Laerm;18038;50.166;18.908;2022-11-30T06:16:44;38.21;33.18;47.74;;
68599;Laerm;18038;50.166;18.908;2022-11-30T06:19:50;39.20;33.69;50.02;;
68599;Laerm;18038;50.166;18.908;2022-11-30T06:22:57;40.16;33.21;55.02;;
68599;Laerm;18038;50.166;18.908;2022-11-30T06:26:09;39.61;33.69;51.27;;
68599;Laerm;18038;50.166;18.908;2022-11-30T06:29:16;39.87;34.09;48.22;;
68599;Laerm;18038;50.166;18.908;2022-11-30T06:32:23;39.25;33.59;49.96;;
68599;Laerm;18038;50.166;18.908;2022-11-30T06:35:29;39.62;33.72;48.38;;
68599;Laerm;18038;50.166;18.908;2022-11-30T06:38:36;38.52;33.17;50.27;;
68599;Laerm;18038;50.166;18.908;2022-11-30T06:41:46;40.31;33.55;51.01;;
68599;Laerm;18038;50.166;18.908;2022-11-30T06:44:57;40.91;34.97;52.51;;
68599;Laerm;18038;50.166;18.908;2022-11-30T06:48:04;40.72;33.65;55.72;;
68599;Laerm;18038;50.166;18.908;2022-11-30T06:51:11;39.70;33.63;47.32;;
68599;Laerm;18038;50.166;18.908;2022-11-30T06:54:17;39.13;33.81;45.73;;
68599;Laerm;18038;50.166;18.908;2022-11-30T06:57:28;40.92;34.18;60.36;;
68599;Laerm;18038;50.166;18.908;2022-11-30T07:00:36;39.22;33.83;49.10;;
68599;Laerm;18038;50.166;18.908;2022-11-30T07:03:43;40.31;34.38;52.58;;
68599;Laerm;18038;50.166;18.908;2022-11-30T07:06:50;40.73;35.44;50.52;;
68599;Laerm;18038;50.166;18.908;2022-11-30T07:09:56;39.79;34.16;49.22;;
68599;Laerm;18038;50.166;18.908;2022-11-30T07:13:09;39.93;34.45;49.82;;
68599;Laerm;18038;50.166;18.908;2022-11-30T07:16:15;39.49;34.23;51.83;;
68599;Laerm;18038;50.166;18.908;2022-11-30T07:19:22;39.13;33.91;46.36;;
68599;Laerm;18038;50.166;18.908;2022-11-30T07:22:29;39.17;33.42;50.18;;
68599;Laerm;18038;50.166;18.908;2022-11-30T07:25:36;39.95;33.68;47.49;;
68599;Laerm;18038;50.166;18.908;2022-11-30T07:28:57;40.34;33.72;55.07;;
68599;Laerm;18038;50.166;18.908;2022-11-30T07:32:04;38.78;33.70;47.77;;
68599;Laerm;18038;50.166;18.908;2022-11-30T07:35:10;38.99;33.29;48.04;;
68599;Laerm;18038;50.166;18.908;2022-11-30T07:38:17;39.74;34.33;47.30;;
68599;Laerm;18038;50.166;18.908;2022-11-30T07:41:24;41.02;33.98;51.66;;
68599;Laerm;18038;50.166;18.908;2022-11-30T07:44:34;47.28;33.83;75.83;;
68599;Laerm;18038;50.166;18.908;2022-11-30T07:47:40;41.93;33.24;63.39;;
68599;Laerm;18038;50.166;18.908;2022-11-30T07:50:48;40.72;33.75;59.92;;
68599;Laerm;18038;50.166;18.908;2022-11-30T07:53:56;39.58;33.54;50.98;;
68599;Laerm;18038;50.166;18.908;2022-11-30T07:57:03;39.35;33.91;55.47;;
68599;Laerm;18038;50.166;18.908;2022-11-30T08:00:13;38.54;33.56;46.89;;
68599;Laerm;18038;50.166;18.908;2022-11-30T08:03:20;38.09;33.32;49.06;;
68599;Laerm;18038;50.166;18.908;2022-11-30T08:06:29;37.73;33.27;46.68;;
68599;Laerm;18038;50.166;18.908;2022-11-30T08:09:36;37.41;33.32;49.46;;
68599;Laerm;18038;50.166;18.908;2022-11-30T08:12:42;39.15;33.31;47.29;;
68599;Laerm;18038;50.166;18.908;2022-11-30T08:15:53;39.18;33.63;54.07;;
68599;Laerm;18038;50.166;18.908;2022-11-30T08:18:59;39.33;33.52;49.38;;
68599;Laerm;18038;50.166;18.908;2022-11-30T08:22:06;38.62;33.84;44.84;;
68599;Laerm;18038;50.166;18.908;2022-11-30T08:25:12;41.14;33.63;67.24;;
68599;Laerm;18038;50.166;18.908;2022-11-30T08:28:19;38.74;33.52;50.13;;
68599;Laerm;18038;50.166;18.908;2022-11-30T08:31:31;37.42;33.40;53.34;;
68599;Laerm;18038;50.166;18.908;2022-11-30T08:34:39;39.19;33.41;47.95;;
68599;Laerm;18038;50.166;18.908;2022-11-30T08:37:45;37.77;33.59;45.89;;
68599;Laerm;18038;50.166;18.908;2022-11-30T08:40:56;39.67;33.59;49.53;;
68599;Laerm;18038;50.166;18.908;2022-11-30T08:44:03;38.73;33.83;53.16;;
68599;Laerm;18038;50.166;18.908;2022-11-30T08:47:13;38.06;33.36;49.12;;
68599;Laerm;18038;50.166;18.908;2022-11-30T08:50:19;39.36;33.84;52.85;;
68599;Laerm;18038;50.166;18.908;2022-11-30T08:53:26;38.91;33.75;51.05;;
68599;Laerm;18038;50.166;18.908;2022-11-30T08:56:33;38.42;33.78;45.57;;
68599;Laerm;18038;50.166;18.908;2022-11-30T08:59:40;39.31;33.82;48.46;;
68599;Laerm;18038;50.166;18.908;2022-11-30T09:02:49;38.97;33.84;48.71;;
68599;Laerm;18038;50.166;18.908;2022-11-30T09:06:03;38.64;33.71;46.54;;
68599;Laerm;18038;50.166;18.908;2022-11-30T09:09:10;37.60;33.54;50.39;;
68599;Laerm;18038;50.166;18.908;2022-11-30T09:12:17;38.65;33.72;48.94;;
68599;Laerm;18038;50.166;18.908;2022-11-30T09:15:23;38.91;33.70;53.17;;
68599;Laerm;18038;50.166;18.908;2022-11-30T09:18:33;38.25;33.47;45.95;;
68599;Laerm;18038;50.166;18.908;2022-11-30T09:21:40;39.11;33.75;52.20;;
68599;Laerm;18038;50.166;18.908;2022-11-30T09:24:54;39.61;33.79;60.58;;
68599;Laerm;18038;50.166;18.908;2022-11-30T09:28:00;38.55;33.83;51.45;;
68599;Laerm;18038;50.166;18.908;2022-11-30T09:31:17;39.93;34.04;58.04;;
68599;Laerm;18038;50.166;18.908;2022-11-30T09:34:26;40.28;33.91;57.87;;
68599;Laerm;18038;50.166;18.908;2022-11-30T09:37:33;37.93;33.90;51.33;;
68599;Laerm;18038;50.166;18.908;2022-11-30T09:40:41;37.59;33.67;46.52;;
68599;Laerm;18038;50.166;18.908;2022-11-30T09:44:02;39.09;33.23;54.12;;
68599;Laerm;18038;50.166;18.908;2022-11-30T09:47:32;38.86;33.50;53.97;;
68599;Laerm;18038;50.166;18.908;2022-11-30T09:50:48;38.69;33.67;46.29;;
68599;Laerm;18038;50.166;18.908;2022-11-30T09:54:00;37.57;33.52;47.35;;
68599;Laerm;18038;50.166;18.908;2022-11-30T09:57:25;38.78;33.71;49.71;;
68599;Laerm;18038;50.166;18.908;2022-11-30T10:00:33;40.75;33.73;58.59;;
68599;Laerm;18038;50.166;18.908;2022-11-30T10:03:41;38.63;33.68;49.95;;
68599;Laerm;18038;50.166;18.908;2022-11-30T10:07:05;38.81;33.59;59.01;;
68599;Laerm;18038;50.166;18.908;2022-11-30T10:10:34;38.37;33.50;52.29;;
68599;Laerm;18038;50.166;18.908;2022-11-30T10:14:00;39.29;33.74;51.51;;
68599;Laerm;18038;50.166;18.908;2022-11-30T10:17:31;39.95;34.30;50.77;;
68599;Laerm;18038;50.166;18.908;2022-11-30T10:20:58;38.18;33.71;51.03;;
68599;Laerm;18038;50.166;18.908;2022-11-30T10:24:31;41.60;33.57;61.30;;
68599;Laerm;18038;50.166;18.908;2022-11-30T10:27:50;39.29;33.73;51.73;;
68599;Laerm;18038;50.166;18.908;2022-11-30T10:31:00;38.30;33.69;47.54;;
68599;Laerm;18038;50.166;18.908;2022-11-30T10:34:19;38.81;33.73;49.51;;
68599;Laerm;18038;50.166;18.908;2022-11-30T10:37:35;38.83;33.90;55.40;;
68599;Laerm;18038;50.166;18.908;2022-11-30T10:40:53;38.48;33.76;54.97;;
68599;Laerm;18038;50.166;18.908;2022-11-30T10:44:11;38.43;33.83;46.59;;
68599;Laerm;18038;50.166;18.908;2022-11-30T10:47:26;38.05;33.88;45.96;;
68599;Laerm;18038;50.166;18.908;2022-11-30T10:50:34;39.66;33.70;54.49;;
68599;Laerm;18038;50.166;18.908;2022-11-30T10:53:40;38.47;33.62;44.81;;
68599;Laerm;18038;50.166;18.908;2022-11-30T10:56:50;40.96;33.78;49.64;;
68599;Laerm;18038;50.166;18.908;2022-11-30T10:59:59;39.83;33.78;51.93;;
68599;Laerm;18038;50.166;18.908;2022-11-30T11:03:24;40.11;34.17;46.89;;
68599;Laerm;18038;50.166;18.908;2022-11-30T11:06:32;40.92;34.00;48.84;;
68599;Laerm;18038;50.166;18.908;2022-11-30T11:09:49;37.43;33.41;46.02;;
68599;Laerm;18038;50.166;18.908;2022-11-30T11:12:58;37.92;33.44;49.00;;
68599;Laerm;18038;50.166;18.908;2022-11-30T11:16:09;38.47;33.60;49.99;;
68599;Laerm;18038;50.166;18.908;2022-11-30T11:19:36;37.92;33.28;46.94;;
68599;Laerm;18038;50.166;18.908;2022-11-30T11:22:43;37.86;33.50;47.39;;
68599;Laerm;18038;50.166;18.908;2022-11-30T11:25:51;37.71;33.29;46.68;;
68599;Laerm;18038;50.166;18.908;2022-11-30T11:29:02;38.60;33.48;47.24;;
68599;Laerm;18038;50.166;18.908;2022-11-30T11:32:20;38.25;33.61;45.07;;
68599;Laerm;18038;50.166;18.908;2022-11-30T11:35:39;39.76;32.90;50.37;;
68599;Laerm;18038;50.166;18.908;2022-11-30T11:38:47;39.73;33.55;51.45;;
68599;Laerm;18038;50.166;18.908;2022-11-30T11:41:55;39.24;33.44;51.49;;
68599;Laerm;18038;50.166;18.908;2022-11-30T11:45:15;37.82;33.10;46.52;;
68599;Laerm;18038;50.166;18.908;2022-11-30T11:48:32;38.54;33.22;48.97;;
68599;Laerm;18038;50.166;18.908;2022-11-30T11:51:39;38.72;33.49;48.23;;
68599;Laerm;18038;50.166;18.908;2022-11-30T11:54:54;39.17;33.59;47.20;;
68599;Laerm;18038;50.166;18.908;2022-11-30T11:58:02;39.44;33.60;57.14;;
68599;Laerm;18038;50.166;18.908;2022-11-30T12:01:41;39.44;33.49;48.74;;
68599;Laerm;18038;50.166;18.908;2022-11-30T12:04:56;39.68;33.81;60.28;;
68599;Laerm;18038;50.166;18.908;2022-11-30T12:08:16;38.86;33.55;51.70;;
68599;Laerm;18038;50.166;18.908;2022-11-30T12:11:33;39.12;33.73;50.30;;
68599;Laerm;18038;50.166;18.908;2022-11-30T12:14:44;39.52;33.63;53.42;;
68599;Laerm;18038;50.166;18.908;2022-11-30T12:18:06;39.83;33.52;49.96;;
68599;Laerm;18038;50.166;18.908;2022-11-30T12:21:45;38.07;33.68;49.15;;
68599;Laerm;18038;50.166;18.908;2022-11-30T12:25:19;39.14;33.68;50.17;;
68599;Laerm;18038;50.166;18.908;2022-11-30T12:28:37;39.66;34.03;48.02;;
68599;Laerm;18038;50.166;18.908;2022-11-30T12:32:09;39.11;33.97;49.10;;
68599;Laerm;18038;50.166;18.908;2022-11-30T12:35:35;39.20;33.72;50.92;;
68599;Laerm;18038;50.166;18.908;2022-11-30T12:38:48;38.95;33.95;47.26;;
68599;Laerm;18038;50.166;18.908;2022-11-30T12:42:12;39.06;33.48;50.14;;
68599;Laerm;18038;50.166;18.908;2022-11-30T12:45:31;39.67;33.71;49.31;;
68599;Laerm;18038;50.166;18.908;2022-11-30T12:49:04;39.05;33.73;50.30;;
68599;Laerm;18038;50.166;18.908;2022-11-30T12:52:36;40.33;34.38;49.28;;
68599;Laerm;18038;50.166;18.908;2022-11-30T12:56:01;39.75;34.05;48.82;;
68599;Laerm;18038;50.166;18.908;2022-11-30T12:59:23;39.71;33.90;46.67;;
68599;Laerm;18038;50.166;18.908;2022-11-30T13:03:03;38.78;33.63;48.02;;
68599;Laerm;18038;50.166;18.908;2022-11-30T13:06:20;39.95;33.85;52.11;;
68599;Laerm;18038;50.166;18.908;2022-11-30T13:09:40;39.10;33.89;51.36;;
68599;Laerm;18038;50.166;18.908;2022-11-30T13:12:53;38.35;33.81;52.10;;
68599;Laerm;18038;50.166;18.908;2022-11-30T13:16:07;39.36;33.89;53.58;;
68599;Laerm;18038;50.166;18.908;2022-11-30T13:19:46;40.13;34.22;59.43;;
68599;Laerm;18038;50.166;18.908;2022-11-30T13:23:05;39.40;34.07;53.89;;
68599;Laerm;18038;50.166;18.908;2022-11-30T13:26:28;39.95;33.88;49.26;;
68599;Laerm;18038;50.166;18.908;2022-11-30T13:30:08;39.11;33.88;46.34;;
68599;Laerm;18038;50.166;18.908;2022-11-30T13:33:46;40.98;33.98;53.71;;
68599;Laerm;18038;50.166;18.908;2022-11-30T13:37:04;39.52;34.07;49.39;;
68599;Laerm;18038;50.166;18.908;2022-11-30T13:40:20;40.45;33.78;50.84;;
68599;Laerm;18038;50.166;18.908;2022-11-30T13:43:35;38.73;33.87;47.53;;
68599;Laerm;18038;50.166;18.908;2022-11-30T13:46:49;39.08;34.40;45.84;;
68599;Laerm;18038;50.166;18.908;2022-11-30T13:50:00;39.06;33.96;47.00;;
68599;Laerm;18038;50.166;18.908;2022-11-30T13:53:29;39.17;33.56;45.68;;
68599;Laerm;18038;50.166;18.908;2022-11-30T13:56:37;39.89;33.59;47.98;;
68599;Laerm;18038;50.166;18.908;2022-11-30T13:59:54;39.42;34.41;46.59;;
68599;Laerm;18038;50.166;18.908;2022-11-30T14:03:23;39.70;34.22;57.56;;
68599;Laerm;18038;50.166;18.908;2022-11-30T14:06:47;38.98;33.86;47.00;;
68599;Laerm;18038;50.166;18.908;2022-11-30T14:09:59;39.67;33.59;46.67;;
68599;Laerm;18038;50.166;18.908;2022-11-30T14:13:28;39.97;33.88;47.65;;
68599;Laerm;18038;50.166;18.908;2022-11-30T14:16:41;39.57;34.13;47.01;;
68599;Laerm;18038;50.166;18.908;2022-11-30T14:19:52;39.44;33.79;48.31;;
68599;Laerm;18038;50.166;18.908;2022-11-30T14:23:05;39.51;34.09;47.05;;
68599;Laerm;18038;50.166;18.908;2022-11-30T14:26:16;47.40;33.57;71.69;;
68599;Laerm;18038;50.166;18.908;2022-11-30T14:29:31;39.36;33.99;46.48;;
68599;Laerm;18038;50.166;18.908;2022-11-30T14:32:50;39.75;34.28;48.01;;
68599;Laerm;18038;50.166;18.908;2022-11-30T14:36:00;39.69;34.06;46.17;;
68599;Laerm;18038;50.166;18.908;2022-11-30T14:39:24;40.64;34.40;57.30;;
68599;Laerm;18038;50.166;18.908;2022-11-30T14:42:34;39.13;33.95;53.89;;
68599;Laerm;18038;50.166;18.908;2022-11-30T14:45:40;39.55;33.91;47.68;;
68599;Laerm;18038;50.166;18.908;2022-11-30T14:49:15;38.55;33.84;50.10;;
68599;Laerm;18038;50.166;18.908;2022-11-30T14:52:48;39.22;33.85;47.95;;
68599;Laerm;18038;50.166;18.908;2022-11-30T14:56:10;39.66;33.83;51.48;;
68599;Laerm;18038;50.166;18.908;2022-11-30T14:59:39;39.28;33.97;47.75;;
68599;Laerm;18038;50.166;18.908;2022-11-30T15:02:50;40.76;33.66;57.13;;
68599;Laerm;18038;50.166;18.908;2022-11-30T15:06:03;38.96;34.12;48.08;;
68599;Laerm;18038;50.166;18.908;2022-11-30T15:09:17;37.82;33.66;43.63;;
68599;Laerm;18038;50.166;18.908;2022-11-30T15:12:24;38.94;33.56;45.92;;
68599;Laerm;18038;50.166;18.908;2022-11-30T15:15:32;39.39;33.57;48.93;;
68599;Laerm;18038;50.166;18.908;2022-11-30T15:18:43;38.80;33.58;56.10;;
68599;Laerm;18038;50.166;18.908;2022-11-30T15:21:55;38.89;33.56;45.39;;
68599;Laerm;18038;50.166;18.908;2022-11-30T15:25:02;38.38;34.04;45.81;;
68599;Laerm;18038;50.166;18.908;2022-11-30T15:28:17;40.42;34.13;62.19;;
68599;Laerm;18038;50.166;18.908;2022-11-30T15:31:33;38.97;33.78;53.81;;
68599;Laerm;18038;50.166;18.908;2022-11-30T15:34:47;39.04;33.62;48.04;;
68599;Laerm;18038;50.166;18.908;2022-11-30T15:38:07;38.99;33.24;58.03;;
68599;Laerm;18038;50.166;18.908;2022-11-30T15:41:19;38.96;33.61;48.06;;
68599;Laerm;18038;50.166;18.908;2022-11-30T15:44:39;39.15;33.66;51.47;;
68599;Laerm;18038;50.166;18.908;2022-11-30T15:47:49;38.25;33.97;45.68;;
68599;Laerm;18038;50.166;18.908;2022-11-30T15:51:00;39.50;33.61;51.44;;
68599;Laerm;18038;50.166;18.908;2022-11-30T15:54:10;38.99;34.00;47.47;;
68599;Laerm;18038;50.166;18.908;2022-11-30T15:57:19;38.32;33.42;44.70;;
68599;Laerm;18038;50.166;18.908;2022-11-30T16:00:27;38.43;33.50;45.77;;
68599;Laerm;18038;50.166;18.908;2022-11-30T16:03:59;39.14;33.16;51.72;;
68599;Laerm;18038;50.166;18.908;2022-11-30T16:07:16;38.14;33.26;45.76;;
68599;Laerm;18038;50.166;18.908;2022-11-30T16:10:33;39.37;33.87;44.91;;
68599;Laerm;18038;50.166;18.908;2022-11-30T16:13:40;39.13;34.26;46.32;;
68599;Laerm;18038;50.166;18.908;2022-11-30T16:16:47;38.79;33.66;49.18;;
68599;Laerm;18038;50.166;18.908;2022-11-30T16:19:56;38.20;33.50;48.35;;
68599;Laerm;18038;50.166;18.908;2022-11-30T16:23:02;38.52;33.87;50.83;;
68599;Laerm;18038;50.166;18.908;2022-11-30T16:26:14;37.79;33.12;46.59;;
68599;Laerm;18038;50.166;18.908;2022-11-30T16:29:41;38.34;33.27;46.33;;
68599;Laerm;18038;50.166;18.908;2022-11-30T16:32:55;38.46;33.76;48.61;;
68599;Laerm;18038;50.166;18.908;2022-11-30T16:36:07;38.04;33.60;50.13;;
68599;Laerm;18038;50.166;18.908;2022-11-30T16:40:40;36.82;33.27;45.79;;
68599;Laerm;18038;50.166;18.908;2022-11-30T16:47:10;38.13;33.05;45.84;;
68599;Laerm;18038;50.166;18.908;2022-11-30T16:50:18;37.89;33.74;45.27;;
68599;Laerm;18038;50.166;18.908;2022-11-30T16:53:24;38.85;33.99;51.69;;
68599;Laerm;18038;50.166;18.908;2022-11-30T16:56:31;38.91;33.67;54.43;;
68599;Laerm;18038;50.166;18.908;2022-11-30T16:59:38;38.88;33.78;49.63;;
68599;Laerm;18038;50.166;18.908;2022-11-30T17:02:55;38.14;33.77;50.69;;
68599;Laerm;18038;50.166;18.908;2022-11-30T17:06:03;38.76;33.59;49.72;;
68599;Laerm;18038;50.166;18.908;2022-11-30T17:09:14;38.44;33.44;46.13;;
68599;Laerm;18038;50.166;18.908;2022-11-30T17:12:21;39.26;33.50;52.71;;
68599;Laerm;18038;50.166;18.908;2022-11-30T17:15:29;38.22;33.09;46.27;;
68599;Laerm;18038;50.166;18.908;2022-11-30T17:18:38;38.36;33.36;46.21;;
68599;Laerm;18038;50.166;18.908;2022-11-30T17:21:45;38.23;33.12;48.87;;
68599;Laerm;18038;50.166;18.908;2022-11-30T17:24:52;39.48;33.55;52.81;;
68599;Laerm;18038;50.166;18.908;2022-11-30T17:28:00;38.30;33.55;48.59;;
68599;Laerm;18038;50.166;18.908;2022-11-30T17:31:07;38.36;33.61;55.32;;
68599;Laerm;18038;50.166;18.908;2022-11-30T17:34:17;38.79;33.36;51.17;;
68599;Laerm;18038;50.166;18.908;2022-11-30T17:37:23;37.68;33.30;45.43;;
68599;Laerm;18038;50.166;18.908;2022-11-30T17:40:30;37.39;33.41;50.50;;
68599;Laerm;18038;50.166;18.908;2022-11-30T17:43:37;38.12;33.37;49.44;;
68599;Laerm;18038;50.166;18.908;2022-11-30T17:46:44;37.17;33.12;54.96;;